Aéroport int. de Vancouver, Colombie-Britannique

Conditions des dernières 24 heures

Date / Heure
(HAP)
Conditions Temp
(°F)
Humidité
(%)
Point de rosée
(°F)
Vent
(mph)
Pression (pouces) Visibilité
(miles)
05 mai 2015
13:00 Généralement nuageux 54 67 44 ESE 4 30.0 15
12:00 Partiellement nuageux 54 74 46 E 9 30.0 15
11:00 Généralement nuageux 52 75 45 E 9 30.0 15
10:00 Généralement nuageux 49 76 42 SSO 5 30.0 15
9:00 Généralement nuageux 50 82 45 ESE 7 30.0 15
8:00 Généralement nuageux 48 84 44 E 6 30.0 15
7:00 Généralement nuageux 47   84 42 SSE 3 29.9 15
6:00 Faible averse de pluie 47   85 42 SSE 7 29.9 12
5:00 Généralement nuageux 47   86 43 E 6 29.9 12
4:00 Faible averse de pluie 47   86 43 E 6 29.9 8
3:00 Généralement nuageux 49 74 41 SE 6 29.9 8
2:00 Faible averse de pluie 48 77 42 SSE 8 29.9 8
1:00 Généralement nuageux 49 76 41 S 6 29.9 8
0:00 Pluie faible 50 70 41 S 13 29.9 15
04 mai 2015
23:00 Généralement nuageux 50 70 41 SSO 11 29.9 15
22:00 Généralement dégagé 51 69 41 SSO 13 29.9 15
21:00 Partiellement nuageux 52 65 41 SSO 17 29.9 15
20:00 Généralement nuageux 54 62 41 SO 17 29.9 15
19:00 Généralement nuageux 56 66 45 SSO 13 rafale 26 29.9 15
18:00 Généralement nuageux 56 70 46 SSO 12 29.9 15
17:00 Faible averse de pluie 54 75 46 SSE 9 rafale 18 29.9 10
16:00 Faible averse de pluie 60 50 41 SSO 9 rafale 18 29.9 20
15:00 Généralement nuageux 61 48 41 SSO 6 29.9 30
14:00 Partiellement nuageux 62   44 40 SSO 10 29.9 30
13:00 Généralement nuageux 61 61 48 SSE 5 29.9 20
N.D. non disponible
↑ température la plus haute
↓ température la plus basse

Si vous désirez plus de données historiques sur les conditions météo, s.v.p. visitez Données climatologiques en ligne.

Ce que nous faisons

Date de modification :